This demonstration page uses our WeatherBlox Daily Observations layout. Learn more.

Left ArrowRight Arrow

Hourly Observations for May 11, 2020

Temp ( °F °C ) Dew Point ( °F °C ) Humidity (%) Winds ( mph kmh ) Pressure ( in mb ) Visibility ( mi km ) Precip ( " mm )
12:54 am 00:54 Clear 39 3.9 26 -3.3 60 60 NNW 6 9 30.4 1029 10 16.0934 0 0
1:54 am 01:54 Clear 36 2.2 26 -3.3 67 67 N 5 7 30.4 1029 10 16.0934 0 0
2:54 am 02:54 Clear 40 4.4 26 -3.3 58 58 NNW 5 7 30.4 1030 10 16.0934 0 0
3:54 am 03:54 Cloudy 41 5 26 -3.3 55 55 NNW 5 7 30.4 1030 10 16.0934 0 0
4:54 am 04:54 Cloudy 41 5 27 -2.8 57 57 NNW 8 13 30.4 1030 10 16.0934 0 0
5:54 am 05:54 Mostly Cloudy 41 5 26 -3.3 55 55 NNW 7 11 30.41 1030 10 16.0934 0 0
6:54 am 06:54 Cloudy 41 5 27 -2.8 57 57 NNW 7 11 30.41 1030 10 16.0934 0.001 0.001
7:54 am 07:54 Cloudy 43 6.1 27 -2.8 53 53 NNW 6 9 30.42 1030 10 16.0934 0.001 0.001
8:54 am 08:54 Cloudy 44 6.7 27 -2.8 51 51 N 7 11 30.42 1030 10 16.0934 0 0
9:54 am 09:54 Cloudy 46 7.8 27 -2.8 47 47 N 7 11 30.42 1030 10 16.0934 0 0
10:54 am 10:54 Cloudy 48 8.9 25 -3.9 41 41 undefined N/A 30.41 1030 10 16.0934 0 0
11:54 am 11:54 Partly Cloudy 50 10 26 -3.3 39 39 VRB 5 7 30.4 1030 10 16.0934 0 0
12:54 pm 12:54 Mostly Cloudy 50 10 25 -3.9 38 38 Calm 30.39 1029 10 16.0934 0 0
1:54 pm 13:54 Cloudy 50 10 25 -3.9 38 38 SSW 6 9 30.36 1028 10 16.0934 0 0
2:54 pm 14:54 Cloudy 51 10.6 25 -3.9 36 36 Calm 30.34 1028 10 16.0934 0 0
3:54 pm 15:54 Cloudy 50 10 25 -3.9 38 38 S 3 6 30.32 1027 10 16.0934 0 0
4:54 pm 16:54 Cloudy 49 9.4 26 -3.3 41 41 SSW 10 17 30.3 1026 10 16.0934 0 0
5:54 pm 17:54 Cloudy 49 9.4 26 -3.3 41 41 undefined N/A 30.29 1026 10 16.0934 0 0
6:54 pm 18:54 Cloudy 49 9.4 26 -3.3 41 41 undefined N/A 30.27 1025 10 16.0934 0 0
7:54 pm 19:54 Cloudy 48 8.9 26 -3.3 42 42 WSW 7 11 30.26 1025 10 16.0934 0 0
8:54 pm 20:54 Cloudy 47 8.3 27 -2.8 46 46 WSW 5 7 30.26 1025 10 16.0934 0 0
9:54 pm 21:54 Cloudy 47 8.3 28 -2.2 48 48 W 3 6 30.27 1025 10 16.0934 0 0
10:54 pm 22:54 Cloudy 46 7.8 28 -2.2 50 50 WNW 3 6 30.29 1026 10 16.0934 0.001 0.001
11:54 pm 23:54 Cloudy 46 7.8 28 -2.2 50 50 NW 6 9 30.28 1025 10 16.0934 0 0

Powered by AerisWeather